KJQF

Concord Regional Airport

Concord, North Carolina, USA
METAR KJQF 140350Z 02005KT 10SM BKN037 09/07 A3024
Observed Flight Rules
Nov-14 @ 03:50 UTC (58 minutes ago) Visual Flight Rules
Wind Visibility Clouds
20° at 5 knots 10 miles
  • Broken at 3,700' AGL
Temperatures Readings
Current 9°C / 48°F
Dewpoint 7°C / 45°F
Humidity 87%
Altimeter 30.24" Hg
Pressure 1024 hPa
Elevation 210
METAR KJQF 140350Z 02005KT 10SM BKN037 09/07 A3024
Observed Flight Rules
Nov-14 @ 03:50 UTC
(58 minutes ago)
VFR
Wind Visibility
20° at 5 knots 10 miles
Clouds
  • Broken at 3,700' AGL
Temperature Dewpoint
9°C / 48°F 7°C / 45°F
Humidity Altimeter Pressure
87% 30.24" Hg 1024 hPa